Time;durP1;ratioP1;P1;durP2;ratioP2;P2;SDS_P1;SDS_P2;PMS_P1;PMS_P2;Temp;Humidity;BMP_temperature;BMP_pressure;BME280_temperature;BME280_humidity;BME280_pressure;Samples;Min_cycle;Max_cycle;Signal;HPM_P1;HPM_P2
2023/12/21 00:01:50;;;;;;;;;5.25;1.00;;;;;10.47;79.09;101253.75;5059453;28;46256;-67
2023/12/21 00:04:16;;;;;;;;;0.67;0.33;;;;;10.54;79.69;101266.03;5060035;28;45420;-67
2023/12/21 00:06:42;;;;;;;;;3.00;1.00;;;;;9.89;79.28;101145.72;5059723;28;45546;-65
2023/12/21 00:09:14;;;;;;;;;2.67;2.00;;;;;10.77;79.11;101307.31;5059916;28;45516;-67
2023/12/21 00:11:44;;;;;;;;;3.67;1.33;;;;;10.76;79.30;101301.19;5061066;28;46177;-67
2023/12/21 00:14:12;;;;;;;;;1.00;1.00;;;;;10.55;79.59;101254.69;5060900;28;45569;-67
2023/12/21 00:16:38;;;;;;;;;0.67;0.67;;;;;10.77;79.47;101286.34;5059447;28;45332;-66
2023/12/21 00:19:04;;;;;;;;;3.00;1.67;;;;;10.71;79.47;101270.59;5059217;28;45301;-67
2023/12/21 00:21:34;;;;;;;;;1.00;1.00;;;;;10.33;80.23;101200.34;5050589;28;47834;-67
2023/12/21 00:24:03;;;;;;;;;3.00;1.00;;;;;10.71;80.63;101278.44;5053695;28;45353;-67
2023/12/21 00:26:42;;;;;;;;;3.33;1.00;;;;;10.74;80.73;101270.59;5060214;28;45365;-66
2023/12/21 00:29:13;;;;;;;;;3.00;1.67;;;;;10.15;80.66;101165.22;5060063;28;45618;-66
2023/12/21 00:31:41;;;;;;;;;2.00;1.00;;;;;10.60;81.14;101247.75;5059089;28;46634;-66
2023/12/21 00:34:07;;;;;;;;;3.33;1.00;;;;;10.73;80.81;101251.38;5057392;28;45555;-65
2023/12/21 00:36:32;;;;;;;;;3.33;1.00;;;;;10.67;81.43;101242.59;5058130;28;45713;-66
2023/12/21 00:38:58;;;;;;;;;0.00;0.00;;;;;10.64;81.55;101240.81;5059847;28;45494;-66
2023/12/21 00:41:24;;;;;;;;;2.00;1.00;;;;;10.71;81.52;101247.00;5057550;28;45664;-66
2023/12/21 00:43:49;;;;;;;;;4.00;2.00;;;;;10.70;81.53;101247.84;5058650;28;45465;-66
2023/12/21 00:46:28;;;;;;;;;4.00;2.00;;;;;10.59;81.42;101225.06;5054872;28;45399;-66
2023/12/21 00:48:54;;;;;;;;;2.00;1.00;;;;;10.38;81.58;101189.06;5058305;28;45511;-66
2023/12/21 00:51:20;;;;;;;;;4.33;0.33;;;;;10.68;81.74;101253.09;5057763;28;45773;-67
2023/12/21 00:53:45;;;;;;;;;1.33;1.00;;;;;10.00;82.10;101132.78;5056207;28;45489;-66
2023/12/21 00:56:11;;;;;;;;;3.00;1.00;;;;;10.56;82.13;101218.94;5058427;28;45471;-68
2023/12/21 00:58:49;;;;;;;;;3.00;2.00;;;;;10.39;81.78;101187.31;5052934;28;45375;-67
2023/12/21 01:01:14;;;;;;;;;4.33;1.00;;;;;10.38;82.10;101183.81;5058051;28;46586;-68
2023/12/21 01:03:40;;;;;;;;;3.00;1.67;;;;;10.32;82.33;101175.00;5059336;28;45328;-67
2023/12/21 01:06:05;;;;;;;;;2.67;1.00;;;;;10.61;82.01;101228.56;5058503;28;45535;-68
2023/12/21 01:08:31;;;;;;;;;2.67;1.00;;;;;10.61;82.40;101225.94;5059692;28;45512;-68
2023/12/21 01:11:00;;;;;;;;;1.33;1.33;;;;;10.36;82.57;101180.31;5058683;28;46051;-69
2023/12/21 01:13:26;;;;;;;;;1.67;1.00;;;;;10.65;82.49;101224.22;5059673;28;45272;-67
2023/12/21 01:15:52;;;;;;;;;2.00;2.00;;;;;10.49;82.42;101198.78;5059456;28;45528;-67
2023/12/21 01:18:17;;;;;;;;;1.67;1.00;;;;;10.25;82.02;101146.97;5059442;28;45459;-69
2023/12/21 01:20:43;;;;;;;;;3.67;1.67;;;;;9.98;81.77;101104.84;5059032;28;45531;-66
2023/12/21 01:23:09;;;;;;;;;6.67;2.00;;;;;10.45;82.23;101171.66;5056818;28;45545;-68
2023/12/21 01:25:35;;;;;;;;;1.67;0.33;;;;;10.34;82.33;101149.72;5058266;28;46542;-66
2023/12/21 01:28:00;;;;;;;;;5.00;1.67;;;;;10.69;82.31;101201.56;5050388;28;45530;-66
2023/12/21 01:30:27;;;;;;;;;2.75;1.00;;;;;10.69;81.98;101196.31;5057259;28;45584;-67
2023/12/21 01:32:53;;;;;;;;;4.67;1.33;;;;;10.66;82.05;101188.44;5058020;28;45547;-67
2023/12/21 01:35:19;;;;;;;;;1.33;1.33;;;;;10.58;82.43;101180.50;5057988;28;45401;-67
2023/12/21 01:37:45;;;;;;;;;3.75;2.00;;;;;10.40;82.39;101128.84;5058307;28;45373;-66
2023/12/21 01:40:11;;;;;;;;;3.67;0.00;;;;;10.58;82.65;101156.94;5056643;28;45495;-67
2023/12/21 01:42:40;;;;;;;;;3.00;1.00;;;;;10.66;82.99;101191.06;5058568;28;45373;-66
2023/12/21 01:45:06;;;;;;;;;3.25;1.50;;;;;10.50;82.67;101141.16;5057504;27;45361;-67
2023/12/21 01:47:36;;;;;;;;;3.25;0.75;;;;;10.65;83.06;101160.47;5059711;28;45443;-66
2023/12/21 01:50:02;;;;;;;;;1.00;1.00;;;;;10.68;83.12;101163.13;5059501;28;46123;-67
2023/12/21 01:52:28;;;;;;;;;0.67;0.67;;;;;10.23;83.42;101086.78;5057842;28;45431;-66
2023/12/21 01:54:58;;;;;;;;;1.00;1.00;;;;;10.69;83.03;101167.50;5057022;28;45492;-67
2023/12/21 01:57:24;;;;;;;;;3.25;2.00;;;;;10.44;82.87;101104.44;5043128;28;45453;-67
2023/12/21 01:59:51;;;;;;;;;3.33;1.00;;;;;10.63;83.08;101136.00;5058374;28;46084;-67
2023/12/21 02:02:16;;;;;;;;;2.00;1.00;;;;;10.47;83.52;101098.38;5058661;28;45483;-66
2023/12/21 02:04:43;;;;;;;;;3.33;0.33;;;;;10.59;83.20;101117.66;5057049;28;45422;-68
2023/12/21 02:07:09;;;;;;;;;1.00;0.67;;;;;10.63;83.35;101122.91;5072425;27;45388;-66
2023/12/21 02:09:34;;;;;;;;;3.33;0.00;;;;;10.72;83.29;101121.25;5057841;28;45551;-68
2023/12/21 02:12:00;;;;;;;;;0.00;0.00;;;;;10.74;83.37;101121.25;5058517;27;45520;-68
2023/12/21 02:14:25;;;;;;;;;0.00;0.00;;;;;10.68;83.79;101109.00;5056445;28;45481;-67
2023/12/21 02:17:06;;;;;;;;;2.00;0.00;;;;;10.68;83.64;101102.88;5057225;28;45545;-67
2023/12/21 02:19:32;;;;;;;;;1.00;1.00;;;;;10.67;83.58;101108.97;5052055;28;45500;-68
2023/12/21 02:22:01;;;;;;;;;0.67;0.67;;;;;10.71;83.81;101106.41;5056804;28;45356;-67
2023/12/21 02:24:30;;;;;;;;;0.00;0.00;;;;;10.75;84.04;101107.31;5057863;28;45384;-67
2023/12/21 02:27:00;;;;;;;;;2.67;0.33;;;;;10.74;83.74;101109.03;5057929;27;45479;-67
2023/12/21 02:29:25;;;;;;;;;1.33;0.00;;;;;10.74;83.53;101097.69;5057442;28;46239;-67
2023/12/21 02:31:54;;;;;;;;;2.00;1.00;;;;;10.49;83.99;101065.22;5057671;28;45496;-66
2023/12/21 02:34:20;;;;;;;;;3.00;0.00;;;;;10.53;84.04;101074.81;5042492;28;45505;-67
2023/12/21 02:36:46;;;;;;;;;0.33;0.00;;;;;10.75;83.95;101112.56;5056586;28;45354;-67
2023/12/21 02:39:11;;;;;;;;;2.33;0.00;;;;;10.27;84.33;101037.94;5057809;28;45401;-67
2023/12/21 02:41:37;;;;;;;;;0.00;0.00;;;;;10.67;84.63;101103.75;5050614;28;45543;-67
2023/12/21 02:44:03;;;;;;;;;4.67;1.00;;;;;10.72;84.54;101104.66;5048518;28;45519;-67
2023/12/21 02:46:28;;;;;;;;;1.33;0.00;;;;;10.61;84.69;101081.88;5057017;28;45494;-66
2023/12/21 02:48:54;;;;;;;;;0.00;0.00;;;;;10.53;84.56;101074.81;5056939;28;46603;-67
2023/12/21 02:51:20;;;;;;;;;0.00;0.00;;;;;10.57;84.80;101069.63;5056998;28;45450;-66
2023/12/21 02:53:45;;;;;;;;;0.00;0.00;;;;;10.75;84.90;101087.22;5056346;28;45541;-67
2023/12/21 02:56:11;;;;;;;;;0.00;0.00;;;;;10.63;84.87;101067.91;5057128;28;45329;-68
2023/12/21 02:58:37;;;;;;;;;0.00;0.00;;;;;10.77;84.58;101088.13;5056850;28;46292;-66
2023/12/21 03:01:03;;;;;;;;;0.00;0.00;;;;;10.78;84.39;101087.22;5056968;28;45420;-67
2023/12/21 03:03:29;;;;;;;;;0.00;0.00;;;;;10.39;84.94;101018.00;5057518;28;45333;-67
2023/12/21 03:05:55;;;;;;;;;0.00;0.00;;;;;10.49;84.91;101024.19;5057300;28;45314;-67
2023/12/21 03:08:23;;;;;;;;;0.00;0.00;;;;;10.72;84.78;101058.38;5049379;28;45299;-66
2023/12/21 03:10:52;;;;;;;;;0.33;0.33;;;;;10.86;84.33;101081.16;5058596;28;45498;-67
2023/12/21 03:13:18;;;;;;;;;2.00;0.00;;;;;10.85;84.41;101069.81;5057473;28;45475;-67
2023/12/21 03:15:44;;;;;;;;;1.00;0.00;;;;;9.79;84.53;100904.09;5057660;28;45331;-66
2023/12/21 03:18:12;;;;;;;;;0.00;0.00;;;;;10.36;85.27;101002.25;5060317;28;46049;-66
2023/12/21 03:20:38;;;;;;;;;0.00;0.00;;;;;10.58;85.36;101024.25;5061698;28;45526;-66
2023/12/21 03:23:07;;;;;;;;;0.33;0.00;;;;;10.83;85.05;101066.31;5076136;27;45692;-68
2023/12/21 03:25:33;;;;;;;;;0.00;0.00;;;;;10.88;84.98;101059.34;5060298;28;45362;-67
2023/12/21 03:27:59;;;;;;;;;3.67;0.00;;;;;10.89;85.33;101057.59;5060040;28;46171;-67
2023/12/21 03:30:32;;;;;;;;;1.00;0.00;;;;;10.74;84.98;101040.91;5061611;28;45270;-68
2023/12/21 03:32:58;;;;;;;;;2.00;0.00;;;;;10.80;85.43;101042.72;5060859;28;45492;-68
2023/12/21 03:35:30;;;;;;;;;0.00;0.00;;;;;10.83;85.14;101042.72;5060026;28;45696;-68
2023/12/21 03:37:56;;;;;;;;;0.00;0.00;;;;;10.80;85.83;101034.84;5059539;28;46480;-68
2023/12/21 03:40:21;;;;;;;;;0.00;0.00;;;;;10.87;85.99;101041.88;5060794;28;45567;-66
2023/12/21 03:42:51;;;;;;;;;0.00;0.00;;;;;10.72;85.71;101013.81;5060919;28;45266;-67
2023/12/21 03:45:32;;;;;;;;;0.00;0.00;;;;;10.57;85.48;100977.94;5061685;28;45461;-66
2023/12/21 03:48:08;;;;;;;;;0.00;0.00;;;;;10.81;86.21;101016.50;5059950;28;45387;-67
2023/12/21 03:50:40;;;;;;;;;0.00;0.00;;;;;10.84;86.11;101026.13;5059798;28;45321;-66
2023/12/21 03:53:09;;;;;;;;;0.00;0.00;;;;;10.82;86.22;101022.66;5059551;28;45449;-67
2023/12/21 03:55:38;;;;;;;;;0.00;0.00;;;;;10.82;86.67;101013.03;5062026;28;45345;-67
2023/12/21 03:58:04;;;;;;;;;1.33;0.00;;;;;10.72;86.49;100979.78;5060570;28;46255;-67
2023/12/21 04:00:30;;;;;;;;;0.00;0.00;;;;;10.59;86.23;100965.75;5060274;28;45523;-66
2023/12/21 04:02:56;;;;;;;;;0.00;0.00;;;;;10.81;86.38;101002.53;5056866;28;45377;-65
2023/12/21 04:05:22;;;;;;;;;0.00;0.00;;;;;10.74;86.71;100966.69;5058964;28;45682;-68
2023/12/21 04:07:48;;;;;;;;;0.00;0.00;;;;;10.67;86.88;100936.09;5058579;28;46363;-67
2023/12/21 04:10:14;;;;;;;;;0.00;0.00;;;;;10.39;86.78;100873.09;5058931;28;45786;-66
2023/12/21 04:12:39;;;;;;;;;0.00;0.00;;;;;10.82;86.82;100936.19;5060577;28;45500;-66
2023/12/21 04:15:05;;;;;;;;;1.00;0.00;;;;;10.81;87.11;100926.53;5060822;28;45518;-67
2023/12/21 04:17:31;;;;;;;;;0.00;0.00;;;;;10.31;87.24;100838.16;5060144;28;46022;-66
2023/12/21 04:19:57;;;;;;;;;1.00;0.00;;;;;10.85;87.76;100927.44;5052745;28;45384;-66
2023/12/21 04:22:23;;;;;;;;;0.00;0.00;;;;;10.84;87.72;100923.94;5075878;27;45420;-66
2023/12/21 04:24:55;;;;;;;;;0.00;0.00;;;;;10.55;87.82;100884.53;5059329;27;45562;-67
2023/12/21 04:27:28;;;;;;;;;0.00;0.00;;;;;10.83;87.60;100937.91;5058413;28;45553;-67
2023/12/21 04:30:04;;;;;;;;;0.00;0.00;;;;;10.29;87.29;100837.28;5058169;28;45343;-67
2023/12/21 04:32:29;;;;;;;;;0.00;0.00;;;;;10.73;87.16;100902.06;5058651;28;45804;-66
2023/12/21 04:34:55;;;;;;;;;0.00;0.00;;;;;10.61;86.88;100892.41;5059509;28;45460;-67
2023/12/21 04:37:22;;;;;;;;;0.00;0.00;;;;;10.75;86.81;100919.56;5058189;28;45516;-66
2023/12/21 04:39:48;;;;;;;;;0.00;0.00;;;;;10.84;87.26;100926.56;5046248;28;45503;-67
2023/12/21 04:42:13;;;;;;;;;0.00;0.00;;;;;10.82;86.74;100915.22;5060154;28;45483;-66
2023/12/21 04:44:42;;;;;;;;;0.67;0.00;;;;;10.69;86.73;100889.81;5060147;28;45508;-66
2023/12/21 04:47:09;;;;;;;;;0.00;0.00;;;;;10.90;86.29;100926.59;5057327;28;45658;-67
2023/12/21 04:49:35;;;;;;;;;0.00;0.00;;;;;10.90;86.61;100926.59;5058741;28;45519;-66
2023/12/21 04:52:02;;;;;;;;;0.00;0.00;;;;;10.90;86.43;100916.09;5058897;28;45468;-68
2023/12/21 04:54:34;;;;;;;;;0.00;0.00;;;;;10.83;86.71;100893.38;5059034;28;45455;-66
2023/12/21 04:56:59;;;;;;;;;0.00;0.00;;;;;10.94;86.75;100916.97;5059097;28;45599;-66
2023/12/21 04:59:26;;;;;;;;;0.00;0.00;;;;;10.80;87.16;100883.75;5058397;28;45330;-67
2023/12/21 05:01:53;;;;;;;;;0.00;0.00;;;;;10.97;86.83;100924.88;5058401;28;45402;-67
2023/12/21 05:04:19;;;;;;;;;0.00;0.00;;;;;10.89;87.09;100909.13;5058506;28;45477;-67
2023/12/21 05:06:53;;;;;;;;;0.00;0.00;;;;;10.92;87.24;100896.03;5057332;28;47561;-68
2023/12/21 05:09:38;;;;;;;;;1.00;0.00;;;;;10.54;87.11;100823.41;5057752;28;45457;-67
2023/12/21 05:12:04;;;;;;;;;0.00;0.00;;;;;10.63;86.78;100848.78;5058432;28;45400;-68
2023/12/21 05:14:30;;;;;;;;;0.67;0.00;;;;;10.99;87.10;100892.56;5058624;28;45538;-68
2023/12/21 05:16:56;;;;;;;;;0.00;0.00;;;;;11.01;86.84;100884.69;5058240;28;46039;-68
2023/12/21 05:19:22;;;;;;;;;0.33;0.00;;;;;10.49;86.56;100798.09;5058413;28;45457;-66
2023/12/21 05:21:54;;;;;;;;;1.00;0.00;;;;;10.78;86.37;100838.34;5058538;28;45341;-72
2023/12/21 05:24:19;;;;;;;;;0.00;0.00;;;;;10.85;86.45;100847.09;5045005;28;45454;-67
2023/12/21 05:26:45;;;;;;;;;0.00;0.00;;;;;11.11;86.04;100890.84;5058216;28;46299;-68
2023/12/21 05:29:11;;;;;;;;;0.00;0.00;;;;;11.11;85.83;100888.22;5058189;28;45420;-67
2023/12/21 05:31:37;;;;;;;;;0.00;0.00;;;;;10.95;86.04;100856.72;5058351;28;45555;-67
2023/12/21 05:34:09;;;;;;;;;0.67;0.00;;;;;11.13;86.12;100875.97;5057708;28;45719;-68
2023/12/21 05:36:34;;;;;;;;;0.00;0.00;;;;;11.09;86.45;100869.84;5058699;28;46242;-68
2023/12/21 05:39:04;;;;;;;;;0.67;0.00;;;;;11.14;86.54;100889.09;5059231;28;45337;-67
2023/12/21 05:41:46;;;;;;;;;0.00;0.00;;;;;11.11;86.44;100889.09;5058153;28;45472;-66
2023/12/21 05:44:23;;;;;;;;;0.00;0.00;;;;;11.16;86.54;100891.72;5058379;28;45550;-67
2023/12/21 05:46:55;;;;;;;;;0.00;0.00;;;;;10.95;87.10;100859.34;5059190;28;46465;-68
2023/12/21 05:49:30;;;;;;;;;0.00;0.00;;;;;11.04;86.75;100848.88;5058571;28;45492;-68
2023/12/21 05:52:08;;;;;;;;;0.00;0.00;;;;;11.01;86.99;100851.50;5073292;27;45642;-67
2023/12/21 05:54:34;;;;;;;;;0.00;0.00;;;;;11.07;86.80;100853.25;5056619;28;45466;-69
2023/12/21 05:57:02;;;;;;;;;0.00;0.00;;;;;11.14;86.73;100859.38;5058016;28;46272;-68
2023/12/21 05:59:33;;;;;;;;;0.00;0.00;;;;;11.14;87.11;100852.38;5058245;28;45381;-69
2023/12/21 06:02:05;;;;;;;;;0.00;0.00;;;;;10.82;87.71;100777.22;5058860;28;45657;-68
2023/12/21 06:04:30;;;;;;;;;0.00;0.00;;;;;11.14;87.83;100833.16;5056385;28;45565;-67
2023/12/21 06:06:56;;;;;;;;;0.00;0.00;;;;;11.14;87.60;100835.78;5057538;27;46230;-68
2023/12/21 06:09:22;;;;;;;;;0.00;0.00;;;;;11.12;88.29;100827.91;5057767;28;45298;-66
2023/12/21 06:11:48;;;;;;;;;0.00;0.00;;;;;10.95;88.61;100792.94;5057724;28;45452;-66
2023/12/21 06:14:14;;;;;;;;;0.00;0.00;;;;;10.86;nan;100778.06;5057764;28;45449;-67
2023/12/21 06:16:40;;;;;;;;;0.00;0.00;;;;;11.14;88.28;100836.66;5057652;28;45443;-67
2023/12/21 06:19:09;;;;;;;;;0.00;0.00;;;;;10.94;88.40;100802.56;5059012;28;45464;-67
2023/12/21 06:21:38;;;;;;;;;0.00;0.00;;;;;11.00;87.95;100813.03;5058288;28;45457;-67
2023/12/21 06:24:17;;;;;;;;;1.00;0.00;;;;;11.00;87.94;100807.81;5057031;28;45483;-68
2023/12/21 06:26:45;;;;;;;;;0.00;0.00;;;;;11.16;87.76;100820.94;5057073;28;46158;-67
2023/12/21 06:29:13;;;;;;;;;0.00;0.00;;;;;10.87;87.09;100765.84;5056801;28;45496;-66
2023/12/21 06:31:40;;;;;;;;;0.00;0.00;;;;;10.92;86.85;100806.94;5057663;28;45443;-67
2023/12/21 06:34:06;;;;;;;;;0.00;0.00;;;;;11.18;86.96;100833.16;5058200;28;45469;-67
2023/12/21 06:36:31;;;;;;;;;0.00;0.00;;;;;11.17;86.45;100839.28;5055678;28;45468;-66
2023/12/21 06:39:01;;;;;;;;;0.00;0.00;;;;;11.20;86.62;100852.41;5057046;28;45938;-67
2023/12/21 06:41:27;;;;;;;;;0.00;0.00;;;;;10.79;86.29;100786.81;5057357;28;45428;-66
2023/12/21 06:43:53;;;;;;;;;0.00;0.00;;;;;11.26;86.10;100859.38;5058409;28;45236;-66
2023/12/21 06:46:20;;;;;;;;;0.00;0.00;;;;;11.28;86.01;100848.91;5056787;28;45373;-66
2023/12/21 06:48:46;;;;;;;;;0.00;0.00;;;;;11.29;86.08;100855.91;5055663;28;45314;-67
2023/12/21 06:51:13;;;;;;;;;0.00;0.00;;;;;11.27;85.66;100848.06;5054912;28;45439;-67
2023/12/21 06:53:39;;;;;;;;;0.00;0.00;;;;;11.29;85.86;100850.66;5057285;28;45472;-67
2023/12/21 06:56:05;;;;;;;;;0.00;0.00;;;;;11.30;86.00;100855.91;5056816;28;45398;-67
2023/12/21 06:58:30;;;;;;;;;1.00;0.00;;;;;11.32;85.30;100866.38;5056357;28;45495;-66
2023/12/21 07:01:00;;;;;;;;;0.00;0.00;;;;;11.25;85.53;100862.91;5055441;28;45530;-66
2023/12/21 07:03:26;;;;;;;;;0.00;0.00;;;;;11.12;85.52;100833.16;5056788;28;45719;-67
2023/12/21 07:05:55;;;;;;;;;0.00;0.00;;;;;11.32;85.16;100856.78;5055666;28;46085;-67
2023/12/21 07:08:36;;;;;;;;;0.67;0.00;;;;;11.19;85.44;100824.41;5057412;28;45459;-67
2023/12/21 07:11:02;;;;;;;;;0.00;0.00;;;;;11.38;85.46;100859.41;5049465;28;45504;-66
2023/12/21 07:13:36;;;;;;;;;0.00;0.00;;;;;11.40;84.88;100883.00;5056289;28;45369;-67
2023/12/21 07:16:05;;;;;;;;;0.00;0.00;;;;;11.42;85.16;100878.66;5056216;28;45343;-67
2023/12/21 07:18:31;;;;;;;;;0.00;0.00;;;;;11.17;84.42;100847.13;5055569;28;45475;-68
2023/12/21 07:20:57;;;;;;;;;0.00;0.00;;;;;10.88;84.79;100797.31;5055598;28;45497;-67
2023/12/21 07:23:23;;;;;;;;;0.00;0.00;;;;;11.27;84.95;100847.16;5058421;28;45302;-67
2023/12/21 07:25:49;;;;;;;;;0.00;0.00;;;;;11.39;84.67;100871.66;5055913;28;46446;-66
2023/12/21 07:28:17;;;;;;;;;0.00;0.00;;;;;11.16;85.09;100813.94;5056575;28;45525;-66
2023/12/21 07:30:59;;;;;;;;;0.00;0.00;;;;;11.17;85.30;100825.28;5055869;28;45556;-68
2023/12/21 07:33:31;;;;;;;;;0.00;0.00;;;;;11.42;85.08;100849.81;5058016;28;45550;-67
2023/12/21 07:35:57;;;;;;;;;0.00;0.00;;;;;11.17;84.77;100822.69;5056872;28;46178;-68
2023/12/21 07:38:26;;;;;;;;;0.00;0.00;;;;;11.41;85.02;100864.66;5056222;28;45420;-67
2023/12/21 07:40:52;;;;;;;;;0.00;0.00;;;;;11.48;85.17;100868.16;5049955;28;45377;-68
2023/12/21 07:43:21;;;;;;;;;1.67;0.00;;;;;11.34;85.02;100823.59;5046887;28;45420;-66
2023/12/21 07:45:46;;;;;;;;;0.00;0.00;;;;;11.40;84.98;100828.81;5056368;28;46140;-67
2023/12/21 07:48:12;;;;;;;;;1.00;0.00;;;;;11.54;85.75;100851.56;5055489;28;45500;-68
2023/12/21 07:50:45;;;;;;;;;0.00;0.00;;;;;11.32;85.46;100806.97;5056842;28;45535;-67
2023/12/21 07:53:14;;;;;;;;;0.00;0.00;;;;;11.48;85.60;100830.56;5057864;27;45267;-67
2023/12/21 07:55:40;;;;;;;;;0.00;0.00;;;;;11.57;85.21;100851.53;5056732;28;45902;-66
2023/12/21 07:58:06;;;;;;;;;0.00;0.00;;;;;11.45;85.09;100819.19;5044276;28;45360;-65
2023/12/21 08:00:32;;;;;;;;;0.00;0.00;;;;;11.53;85.45;100819.22;5055705;28;45755;-66
2023/12/21 08:02:58;;;;;;;;;0.00;0.00;;;;;11.59;84.77;100829.69;5056368;28;45413;-66
2023/12/21 08:05:30;;;;;;;;;0.00;0.00;;;;;11.61;85.07;100840.19;5059038;28;45552;-67
2023/12/21 08:07:55;;;;;;;;;0.00;0.00;;;;;11.50;84.97;100813.06;5060964;28;45414;-67
2023/12/21 08:10:21;;;;;;;;;0.33;0.33;;;;;11.10;84.60;100731.78;5075853;28;45342;-66
2023/12/21 08:12:47;;;;;;;;;1.33;0.00;;;;;11.63;84.55;100813.06;5057623;28;45476;-65
2023/12/21 08:15:16;;;;;;;;;0.00;0.00;;;;;11.35;84.69;100772.00;5058486;28;45450;-66
2023/12/21 08:17:47;;;;;;;;;0.00;0.00;;;;;11.49;85.04;100793.84;5058487;28;45417;-66
2023/12/21 08:20:16;;;;;;;;;0.00;0.00;;;;;11.65;84.58;100798.19;5057598;28;45461;-67
2023/12/21 08:22:43;;;;;;;;;0.00;0.00;;;;;11.61;85.07;100795.59;5059654;28;45463;-67
2023/12/21 08:25:09;;;;;;;;;0.00;0.00;;;;;11.67;84.62;100817.44;5060074;28;46201;-67
2023/12/21 08:27:35;;;;;;;;;0.00;0.00;;;;;11.55;84.77;100791.19;5060026;28;45542;-69
2023/12/21 08:30:02;;;;;;;;;1.00;0.00;;;;;11.53;84.51;100777.25;5059050;28;45780;-70
2023/12/21 08:32:27;;;;;;;;;0.00;0.00;;;;;11.64;86.24;100787.69;5059216;28;45532;-68
2023/12/21 08:34:53;;;;;;;;;0.00;0.00;;;;;11.72;84.91;100799.06;5057150;28;45507;-66
2023/12/21 08:37:18;;;;;;;;;0.00;0.00;;;;;11.78;84.54;100799.03;5058630;28;45431;-67
2023/12/21 08:39:45;;;;;;;;;0.00;0.00;;;;;11.55;85.27;100743.97;5057458;28;45505;-66
2023/12/21 08:42:14;;;;;;;;;0.00;0.00;;;;;11.64;84.19;100743.97;5051582;28;45891;-67
2023/12/21 08:44:40;;;;;;;;;0.00;0.00;;;;;11.46;83.81;100709.94;5059545;28;45456;-67
2023/12/21 08:47:06;;;;;;;;;0.00;0.00;;;;;11.89;83.84;100799.06;5060633;28;45344;-66
2023/12/21 08:49:32;;;;;;;;;0.00;0.00;;;;;11.85;83.72;100806.03;5061078;28;45531;-68
2023/12/21 08:51:58;;;;;;;;;0.00;0.00;;;;;11.75;83.90;100788.56;5060408;28;45532;-68
2023/12/21 08:54:24;;;;;;;;;0.00;0.00;;;;;11.92;83.67;100812.16;5059037;28;46194;-68
2023/12/21 08:56:50;;;;;;;;;0.00;0.00;;;;;11.87;83.91;100814.81;5058444;28;45504;-67
2023/12/21 08:59:16;;;;;;;;;0.00;0.00;;;;;11.90;84.28;100798.19;5053561;28;45585;-68
2023/12/21 09:01:43;;;;;;;;;0.00;0.00;;;;;11.57;84.19;100757.09;5058511;28;45329;-67
2023/12/21 09:04:09;;;;;;;;;0.00;0.00;;;;;11.95;85.16;100820.03;5058621;28;45443;-68
2023/12/21 09:06:35;;;;;;;;;0.00;0.00;;;;;12.02;85.44;100832.25;5056008;28;45820;-68
2023/12/21 09:09:07;;;;;;;;;0.00;0.00;;;;;12.04;85.53;100822.63;5058508;28;45378;-67
2023/12/21 09:11:33;;;;;;;;;0.00;0.00;;;;;12.16;85.07;100826.97;5057631;28;45543;-67
2023/12/21 09:14:02;;;;;;;;;0.00;0.00;;;;;12.22;84.53;100818.19;5056885;28;45700;-67
2023/12/21 09:16:27;;;;;;;;;0.00;0.00;;;;;11.86;84.08;100744.81;5056572;28;45446;-66
2023/12/21 09:18:54;;;;;;;;;0.00;0.00;;;;;12.14;84.23;100785.84;5060247;28;45568;-67
2023/12/21 09:21:20;;;;;;;;;0.00;0.00;;;;;12.18;84.05;100766.59;5063757;28;45287;-67
2023/12/21 09:23:46;;;;;;;;;0.00;0.00;;;;;12.46;83.50;100820.75;5059789;28;45557;-65
2023/12/21 09:26:12;;;;;;;;;0.00;0.00;;;;;12.41;83.71;100805.88;5057391;28;45535;-68
2023/12/21 09:28:39;;;;;;;;;0.00;0.00;;;;;12.54;83.53;100820.72;5059942;28;45434;-67
2023/12/21 09:31:05;;;;;;;;;0.00;0.00;;;;;12.45;82.97;100789.22;5060655;28;45504;-68
2023/12/21 09:33:36;;;;;;;;;0.00;0.00;;;;;12.56;83.54;100795.31;5059545;28;45691;-68
2023/12/21 09:36:03;;;;;;;;;0.33;0.00;;;;;12.60;83.05;100802.28;5054640;28;45486;-67
2023/12/21 09:38:29;;;;;;;;;0.00;0.00;;;;;12.63;83.17;100804.91;5059216;28;45429;-67
2023/12/21 09:40:57;;;;;;;;;0.00;0.00;;;;;12.65;83.02;100794.38;5074806;28;45449;-66
2023/12/21 09:43:23;;;;;;;;;0.00;0.00;;;;;12.65;82.98;100805.75;5057291;28;46086;-69
2023/12/21 09:45:51;;;;;;;;;0.00;0.00;;;;;12.48;83.38;100770.81;5057882;28;45477;-67
2023/12/21 09:48:18;;;;;;;;;0.00;0.00;;;;;12.70;82.72;100801.34;5058315;28;45597;-67
2023/12/21 09:50:46;;;;;;;;;0.00;0.00;;;;;12.23;82.66;100713.16;5059035;28;45462;-67
2023/12/21 09:53:16;;;;;;;;;0.00;0.00;;;;;12.00;83.37;100684.38;5045480;28;46096;-67
2023/12/21 09:55:46;;;;;;;;;0.00;0.00;;;;;12.42;82.91;100752.47;5041369;28;45424;-67
2023/12/21 09:58:12;;;;;;;;;0.00;0.00;;;;;12.59;82.87;100782.13;5053230;28;45349;-68
2023/12/21 10:00:38;;;;;;;;;0.00;0.00;;;;;12.54;83.45;100783.06;5057334;28;45550;-67
2023/12/21 10:03:06;;;;;;;;;0.00;0.00;;;;;12.18;83.67;100732.47;5045413;28;46152;-67
2023/12/21 10:05:34;;;;;;;;;0.00;0.00;;;;;12.17;84.35;100763.09;5050209;28;45511;-69
2023/12/21 10:08:02;;;;;;;;;0.33;0.00;;;;;12.28;84.31;100786.69;5048519;28;45486;-68
2023/12/21 10:10:28;;;;;;;;;0.00;0.00;;;;;12.28;84.68;100774.41;5058105;28;45232;-67
2023/12/21 10:12:54;;;;;;;;;0.00;0.00;;;;;12.30;84.79;100785.78;5057805;28;46461;-67
2023/12/21 10:15:20;;;;;;;;;0.00;0.00;;;;;12.27;85.00;100777.94;5056092;28;45383;-68
2023/12/21 10:17:46;;;;;;;;;2.00;0.00;;;;;11.60;85.44;100681.91;5057283;27;45460;-68
2023/12/21 10:20:12;;;;;;;;;2.00;1.00;;;;;12.26;85.44;100786.66;5058734;28;45475;-66
2023/12/21 10:22:40;;;;;;;;;0.00;0.00;;;;;12.25;86.18;100784.94;5057047;28;45403;-69
2023/12/21 10:25:07;;;;;;;;;2.00;0.33;;;;;12.11;86.12;100771.00;5057176;28;45376;-69
2023/12/21 10:27:34;;;;;;;;;0.00;0.00;;;;;12.24;86.45;100777.94;5056852;28;45361;-68
2023/12/21 10:30:00;;;;;;;;;0.67;0.00;;;;;12.26;88.52;100776.16;5055721;28;45452;-68
2023/12/21 10:32:25;;;;;;;;;0.00;0.00;;;;;12.40;86.43;100762.09;5056875;28;45515;-68
2023/12/21 10:34:53;;;;;;;;;0.00;0.00;;;;;12.13;86.26;100711.47;5058447;28;45316;-70
2023/12/21 10:37:20;;;;;;;;;0.33;0.33;;;;;12.44;86.79;100766.47;5057062;28;45363;-68
2023/12/21 10:39:46;;;;;;;;;2.00;0.00;;;;;12.50;86.89;100753.28;5057189;28;45744;-69
2023/12/21 10:42:14;;;;;;;;;0.00;0.00;;;;;12.46;85.88;100762.97;5055943;28;45500;-69
2023/12/21 10:44:50;;;;;;;;;1.00;0.00;;;;;12.43;86.25;100756.81;5054917;28;45445;-71
2023/12/21 10:47:16;;;;;;;;;0.00;0.00;;;;;12.26;85.92;100743.78;5057779;28;45456;-67
2023/12/21 10:49:43;;;;;;;;;1.00;0.00;;;;;12.42;86.43;100779.59;5056693;28;45301;-68
2023/12/21 10:52:13;;;;;;;;;2.00;0.00;;;;;12.38;86.49;100787.50;5057157;28;46221;-68
2023/12/21 10:54:42;;;;;;;;;0.00;0.00;;;;;12.34;86.84;100798.91;5056783;28;45484;-68
2023/12/21 10:57:17;;;;;;;;;2.00;1.00;;;;;12.06;86.36;100738.63;5057113;28;45510;-68
2023/12/21 10:59:43;;;;;;;;;4.00;2.33;;;;;12.31;87.43;100794.53;5056838;28;45548;-67
2023/12/21 11:02:12;;;;;;;;;1.00;1.00;;;;;12.29;87.22;100764.78;5055969;28;45367;-68
2023/12/21 11:04:46;;;;;;;;;2.67;0.67;;;;;11.97;87.07;100697.53;5056859;28;45495;-69
2023/12/21 11:07:14;;;;;;;;;3.67;1.00;;;;;12.20;87.34;100747.31;5057686;27;45523;-69
2023/12/21 11:09:41;;;;;;;;;2.33;1.67;;;;;12.14;87.72;100749.09;5058195;28;45370;-69
2023/12/21 11:12:08;;;;;;;;;1.67;1.00;;;;;12.23;87.84;100762.19;5056178;28;47253;-68
2023/12/21 11:14:34;;;;;;;;;2.00;2.00;;;;;12.17;87.94;100733.31;5056694;28;45558;-68
2023/12/21 11:17:02;;;;;;;;;2.33;1.00;;;;;12.22;87.82;100745.56;5056004;28;45405;-69
2023/12/21 11:19:34;;;;;;;;;1.67;1.00;;;;;11.97;87.71;100688.78;5048276;28;45338;-69
2023/12/21 11:22:01;;;;;;;;;2.00;1.00;;;;;12.22;87.82;100721.94;5055666;28;46679;-69
2023/12/21 11:24:27;;;;;;;;;2.33;1.67;;;;;12.17;87.91;100717.56;5047375;28;45284;-68
2023/12/21 11:26:59;;;;;;;;;3.00;2.00;;;;;11.93;88.10;100695.78;5056171;28;45493;-68